Time;durP1;ratioP1;P1;durP2;ratioP2;P2;SDS_P1;SDS_P2;PMS_P1;PMS_P2;Temp;Humidity;BMP_temperature;BMP_pressure;BME280_temperature;BME280_humidity;BME280_pressure;Samples;Min_cycle;Max_cycle;Signal;HPM_P1;HPM_P2
2021/10/13 00:02:26;;;;;;;2.05;1.15;;;;;;;13.34;100.00;100977.09;6335607;22;20038;-53
2021/10/13 00:05:29;;;;;;;5.63;1.98;;;;;;;13.34;100.00;100971.50;6335430;22;20022;-53
2021/10/13 00:08:32;;;;;;;4.10;1.23;;;;;;;13.32;100.00;100971.19;6335365;22;20474;-53
2021/10/13 00:11:38;;;;;;;5.18;2.47;;;;;;;13.35;100.00;100975.06;6335243;22;20110;-53
2021/10/13 00:14:41;;;;;;;6.63;1.60;;;;;;;13.28;100.00;100973.38;6335573;22;20022;-53
2021/10/13 00:17:44;;;;;;;3.50;1.25;;;;;;;13.24;100.00;100978.34;6335599;22;20461;-53
2021/10/13 00:20:47;;;;;;;1.08;1.00;;;;;;;13.19;100.00;100981.75;6335586;22;20061;-53
2021/10/13 00:23:49;;;;;;;3.35;1.00;;;;;;;13.19;100.00;100987.34;6335574;22;20029;-53
2021/10/13 00:26:52;;;;;;;3.03;1.05;;;;;;;13.20;100.00;100983.31;6335301;22;20200;-53
2021/10/13 00:29:55;;;;;;;2.20;0.80;;;;;;;13.22;100.00;100986.44;6335467;22;20076;-53
2021/10/13 00:32:58;;;;;;;3.22;0.77;;;;;;;13.22;100.00;100975.25;6336296;22;20093;-53
2021/10/13 00:36:01;;;;;;;1.42;0.50;;;;;;;13.30;100.00;100982.06;6337366;22;20022;-53
2021/10/13 00:39:04;;;;;;;3.95;0.88;;;;;;;13.30;100.00;100976.47;6337577;22;20022;-53
2021/10/13 00:42:07;;;;;;;4.38;0.82;;;;;;;13.28;100.00;100983.78;6337369;22;20110;-53
2021/10/13 00:45:10;;;;;;;4.70;1.67;;;;;;;13.26;100.00;100984.25;6337211;22;20041;-53
2021/10/13 00:48:13;;;;;;;0.90;0.38;;;;;;;13.22;100.00;100978.03;6336948;22;20397;-53
2021/10/13 00:51:17;;;;;;;4.20;1.13;;;;;;;13.21;100.00;100984.84;6337009;22;20025;-53
2021/10/13 00:54:22;;;;;;;2.15;0.80;;;;;;;13.24;100.00;100983.94;6337151;22;20022;-53
2021/10/13 00:57:25;;;;;;;6.72;1.90;;;;;;;13.35;100.00;100978.66;6336874;22;20025;-54
2021/10/13 01:00:28;;;;;;;1.83;0.70;;;;;;;13.31;100.00;100980.84;6336922;22;20060;-53
2021/10/13 01:04:01;;;;;;;3.17;1.15;;;;;;;13.27;100.00;100983.00;6317804;22;20456;-54
2021/10/13 01:07:17;;;;;;;1.90;0.77;;;;;;;13.27;100.00;100971.03;6338149;22;20084;-53
2021/10/13 01:10:48;;;;;;;4.45;1.58;;;;;;;13.24;100.00;100969.94;6338344;22;20386;-53
2021/10/13 01:14:23;;;;;;;1.40;0.80;;;;;;;13.15;100.00;100967.16;6339710;22;20022;-53
2021/10/13 01:17:35;;;;;;;2.00;0.80;;;;;;;13.17;100.00;100966.69;6339412;22;20025;-53
2021/10/13 01:21:06;;;;;;;9.90;0.88;;;;;;;13.23;100.00;100962.78;6339436;22;20083;-53
2021/10/13 01:24:21;;;;;;;3.80;1.27;;;;;;;13.29;100.00;100962.97;6339706;22;20046;-53
2021/10/13 01:27:53;;;;;;;2.50;1.60;;;;;;;13.31;100.00;100966.84;6339421;22;20084;-54
2021/10/13 01:31:02;;;;;;;5.22;0.90;;;;;;;13.28;100.00;100962.19;6319446;22;20072;-53
2021/10/13 01:34:25;;;;;;;3.53;1.02;;;;;;;13.34;100.00;100968.69;6338689;22;20389;-53
2021/10/13 01:37:45;;;;;;;6.97;0.93;;;;;;;13.38;100.00;100966.50;6339154;22;20018;-53
2021/10/13 01:40:51;;;;;;;2.75;0.57;;;;;;;13.36;100.00;100963.41;6339525;22;20350;-53
2021/10/13 01:43:56;;;;;;;1.80;0.70;;;;;;;13.42;100.00;100967.16;6339525;22;20057;-53
2021/10/13 01:47:01;;;;;;;5.28;1.45;;;;;;;13.31;100.00;100950.06;6339071;22;20095;-53
2021/10/13 01:50:06;;;;;;;1.40;0.93;;;;;;;13.27;100.00;100955.03;6320390;22;20029;-53
2021/10/13 01:53:09;;;;;;;6.07;1.80;;;;;;;13.24;100.00;100953.16;6339384;22;20057;-53
2021/10/13 01:56:15;;;;;;;2.38;0.75;;;;;;;13.25;100.00;100939.97;6339116;22;20022;-53
2021/10/13 01:59:23;;;;;;;4.80;0.95;;;;;;;13.29;100.00;100934.97;6339352;22;20116;-53
2021/10/13 02:02:31;;;;;;;1.88;0.70;;;;;;;13.30;100.00;100937.31;6338853;22;20026;-53
2021/10/13 02:05:37;;;;;;;3.33;1.20;;;;;;;13.32;100.00;100950.84;6338769;22;20041;-53
2021/10/13 02:08:42;;;;;;;2.15;0.88;;;;;;;13.34;100.00;100965.91;6338873;22;20465;-52
2021/10/13 02:11:46;;;;;;;3.65;0.93;;;;;;;13.37;100.00;100959.38;6339124;22;20050;-53
2021/10/13 02:14:52;;;;;;;5.72;1.35;;;;;;;13.39;100.00;100956.88;6339098;22;20109;-53
2021/10/13 02:17:58;;;;;;;2.83;0.95;;;;;;;13.39;100.00;100951.28;6339044;22;20060;-53
2021/10/13 02:21:04;;;;;;;3.85;1.55;;;;;;;13.43;100.00;100946.31;6339214;22;20064;-53
2021/10/13 02:24:08;;;;;;;15.25;0.93;;;;;;;13.44;100.00;100942.28;6339134;22;20030;-53
2021/10/13 02:27:39;;;;;;;7.53;0.93;;;;;;;13.45;100.00;100943.03;6319847;22;20087;-53
2021/10/13 02:30:44;;;;;;;;;;;;;;;13.46;100.00;100939.00;6339804;22;20076;-53
2021/10/13 02:33:47;;;;;;;2.75;0.93;;;;;;;13.47;100.00;100934.97;6339030;22;19917;-53
2021/10/13 02:36:49;;;;;;;0.90;0.38;;;;;;;13.44;100.00;100933.88;6338602;22;20022;-53
2021/10/13 02:39:52;;;;;;;3.55;1.90;;;;;;;13.43;100.00;100940.72;6338964;22;20071;-53
2021/10/13 02:42:56;;;;;;;3.85;1.10;;;;;;;13.42;100.00;100941.97;6338909;22;20038;-53
2021/10/13 02:46:06;;;;;;;3.47;0.95;;;;;;;13.41;100.00;100943.19;6338774;22;20470;-53
2021/10/13 02:49:18;;;;;;;5.82;0.93;;;;;;;13.47;100.00;100949.72;6338938;22;20021;-53
2021/10/13 02:52:31;;;;;;;7.53;1.38;;;;;;;13.50;100.00;100946.00;6338788;22;20041;-53
2021/10/13 02:55:59;;;;;;;7.05;1.52;;;;;;;13.50;100.00;100951.59;6338121;22;20128;-53
2021/10/13 02:59:05;;;;;;;4.45;1.17;;;;;;;13.48;100.00;100951.28;6338614;22;20394;-53
2021/10/13 03:02:12;;;;;;;0.77;0.65;;;;;;;13.46;100.00;100948.19;6338602;22;20478;-53
2021/10/13 03:05:18;;;;;;;6.78;1.27;;;;;;;13.43;100.00;100957.50;6338865;22;20022;-57
2021/10/13 03:08:24;;;;;;;4.63;1.75;;;;;;;13.38;100.00;100955.31;6338682;22;20073;-57
2021/10/13 03:11:28;;;;;;;5.25;2.08;;;;;;;13.44;100.00;100956.25;6338810;22;20586;-58
2021/10/13 03:14:33;;;;;;;15.07;2.00;;;;;;;13.43;100.00;100954.69;6338867;22;20059;-57
2021/10/13 03:17:37;;;;;;;7.45;1.67;;;;;;;13.43;100.00;100957.50;6338635;22;20072;-57
2021/10/13 03:20:41;;;;;;;18.15;1.65;;;;;;;13.43;100.00;100960.28;6338547;22;20079;-57
2021/10/13 03:23:44;;;;;;;4.95;1.40;;;;;;;13.43;100.00;100951.13;6338657;22;20064;-58
2021/10/13 03:26:50;;;;;;;13.07;1.98;;;;;;;13.42;100.00;100969.94;6338530;22;20048;-58
2021/10/13 03:29:53;;;;;;;4.43;1.17;;;;;;;13.42;100.00;100961.56;6338590;22;20026;-57
2021/10/13 03:32:57;;;;;;;14.35;2.22;;;;;;;13.38;100.00;100971.34;6338842;22;20426;-57
2021/10/13 03:36:00;;;;;;;6.90;1.58;;;;;;;13.43;100.00;100963.09;6338822;22;20458;-57
2021/10/13 03:39:03;;;;;;;4.22;1.50;;;;;;;13.47;100.00;100969.31;6338734;22;20026;-58
2021/10/13 03:42:07;;;;;;;7.32;2.25;;;;;;;13.42;100.00;100958.75;6338715;22;20026;-57
2021/10/13 03:45:15;;;;;;;3.63;1.27;;;;;;;13.41;100.00;100960.00;6338630;22;20026;-57
2021/10/13 03:48:18;;;;;;;14.20;1.42;;;;;;;13.38;100.00;100965.75;6338511;22;20026;-57
2021/10/13 03:51:22;;;;;;;5.53;1.80;;;;;;;13.43;100.00;100963.09;6338592;22;20485;-57
2021/10/13 03:54:25;;;;;;;12.77;2.03;;;;;;;13.45;100.00;100963.41;6338605;22;20026;-57
2021/10/13 03:57:28;;;;;;;10.95;3.20;;;;;;;13.53;100.00;100956.25;6338182;22;20022;-58
2021/10/13 04:00:31;;;;;;;13.52;2.55;;;;;;;13.46;100.00;100953.78;6338271;22;20022;-57
2021/10/13 04:03:34;;;;;;;4.18;1.98;;;;;;;13.41;100.00;100948.78;6338252;22;20040;-57
2021/10/13 04:06:38;;;;;;;7.78;1.55;;;;;;;13.37;100.00;100959.38;6338046;22;20104;-57
2021/10/13 04:09:41;;;;;;;5.38;1.70;;;;;;;13.42;100.00;100944.75;6340238;22;20072;-57
2021/10/13 04:12:45;;;;;;;10.35;2.72;;;;;;;13.52;100.00;100953.91;6340416;22;20060;-57
2021/10/13 04:15:47;;;;;;;5.45;1.90;;;;;;;13.53;100.00;100947.88;6340201;22;20025;-57
2021/10/13 04:18:51;;;;;;;9.25;2.30;;;;;;;13.55;100.00;100944.59;6321313;22;20057;-58
2021/10/13 04:21:53;;;;;;;10.43;1.73;;;;;;;13.55;100.00;100942.56;6321197;22;20080;-57
2021/10/13 04:24:57;;;;;;;8.15;2.40;;;;;;;13.54;100.00;100952.19;6340121;22;20077;-57
2021/10/13 04:28:00;;;;;;;3.05;0.98;;;;;;;13.43;100.00;100946.31;6340377;22;20026;-57
2021/10/13 04:31:02;;;;;;;9.48;1.63;;;;;;;13.36;100.00;100952.22;6340174;22;20022;-57
2021/10/13 04:34:05;;;;;;;12.65;2.05;;;;;;;13.35;100.00;100955.47;6340083;22;20021;-57
2021/10/13 04:37:08;;;;;;;14.57;3.25;;;;;;;13.36;100.00;100957.81;6340004;22;20457;-57
2021/10/13 04:40:11;;;;;;;13.05;2.30;;;;;;;13.36;100.00;100963.41;6340119;22;20026;-58
2021/10/13 04:43:14;;;;;;;5.00;2.05;;;;;;;13.38;100.00;100960.91;6340136;22;20025;-57
2021/10/13 04:46:17;;;;;;;6.70;1.88;;;;;;;13.32;100.00;100962.78;6339943;22;20057;-57
2021/10/13 04:49:20;;;;;;;7.38;2.13;;;;;;;13.32;100.00;100960.00;6339927;22;20022;-57
2021/10/13 04:52:23;;;;;;;6.53;2.05;;;;;;;13.30;100.00;100959.69;6339826;22;20025;-57
2021/10/13 04:55:25;;;;;;;14.13;3.28;;;;;;;13.30;100.00;100954.09;6339887;22;20459;-57
2021/10/13 04:58:28;;;;;;;10.30;2.80;;;;;;;13.35;100.00;100964.66;6339702;22;20465;-57
2021/10/13 05:01:32;;;;;;;2.53;1.27;;;;;;;13.27;100.00;100962.66;6339539;22;20336;-57
2021/10/13 05:04:34;;;;;;;9.95;2.15;;;;;;;13.29;100.00;100952.56;6339626;22;20022;-57
2021/10/13 05:07:37;;;;;;;9.20;2.38;;;;;;;13.33;100.00;100957.97;6339581;22;20125;-57
2021/10/13 05:10:40;;;;;;;9.40;1.83;;;;;;;13.36;100.00;100962.66;6339743;22;20025;-57
2021/10/13 05:13:43;;;;;;;12.77;2.50;;;;;;;13.39;100.00;100962.47;6339669;22;20026;-59
2021/10/13 05:16:45;;;;;;;13.05;2.38;;;;;;;13.43;100.00;100960.28;6339554;22;20021;-59
2021/10/13 05:19:48;;;;;;;10.57;1.95;;;;;;;13.41;100.00;100971.19;6339247;22;20093;-57
2021/10/13 05:22:51;;;;;;;6.93;1.90;;;;;;;13.46;100.00;100962.16;6339560;22;20378;-57
2021/10/13 05:25:54;;;;;;;7.55;1.60;;;;;;;13.47;100.00;100955.31;6339501;22;20025;-57
2021/10/13 05:28:57;;;;;;;14.02;3.08;;;;;;;13.49;100.00;100952.81;6339611;22;20029;-57
2021/10/13 05:32:00;;;;;;;14.93;1.63;;;;;;;13.49;100.00;100955.63;6339471;22;20060;-58
2021/10/13 05:35:03;;;;;;;7.75;1.55;;;;;;;13.47;100.00;100946.91;6339290;22;20086;-58
2021/10/13 05:38:06;;;;;;;7.57;1.30;;;;;;;13.45;100.00;100943.81;6339249;22;20049;-58
2021/10/13 05:41:08;;;;;;;9.07;1.60;;;;;;;13.42;100.00;100952.38;6339607;22;20386;-58
2021/10/13 05:44:11;;;;;;;10.52;2.05;;;;;;;13.44;100.00;100950.66;6339451;22;20068;-58
2021/10/13 05:47:14;;;;;;;8.68;3.33;;;;;;;13.45;100.00;100948.63;6339282;22;20474;-59
2021/10/13 05:50:17;;;;;;;14.45;2.35;;;;;;;13.43;100.00;100954.69;6339407;22;20074;-58
2021/10/13 05:53:22;;;;;;;13.38;2.28;;;;;;;13.38;100.00;100949.72;6339196;22;20076;-58
2021/10/13 05:56:25;;;;;;;4.18;1.65;;;;;;;13.38;100.00;100949.72;6338998;22;20113;-58
2021/10/13 05:59:28;;;;;;;8.15;1.63;;;;;;;13.32;100.00;100959.25;6339160;22;20022;-58
2021/10/13 06:02:35;;;;;;;15.70;2.47;;;;;;;13.39;100.00;100959.69;6339260;22;20022;-58
2021/10/13 06:05:40;;;;;;;16.35;3.33;;;;;;;13.42;100.00;100960.78;6320194;22;20075;-58
2021/10/13 06:08:44;;;;;;;5.90;2.42;;;;;;;13.45;100.00;100959.81;6339016;22;20028;-58
2021/10/13 06:11:47;;;;;;;10.98;3.03;;;;;;;13.47;100.00;100952.50;6339036;22;20034;-58
2021/10/13 06:14:50;;;;;;;6.60;1.98;;;;;;;13.46;100.00;100953.78;6339359;22;20100;-57
2021/10/13 06:17:53;;;;;;;6.45;2.13;;;;;;;13.46;100.00;100948.19;6339058;22;20407;-57
2021/10/13 06:20:55;;;;;;;4.43;2.40;;;;;;;13.47;100.00;100949.72;6339121;22;20042;-57
2021/10/13 06:23:59;;;;;;;7.90;2.80;;;;;;;13.48;100.00;100951.28;6339057;22;20348;-56
2021/10/13 06:27:02;;;;;;;5.25;1.95;;;;;;;13.49;100.00;100954.84;6339005;22;20068;-56
2021/10/13 06:30:05;;;;;;;24.83;3.30;;;;;;;13.47;100.00;100951.75;6338596;22;20065;-56
2021/10/13 06:33:08;;;;;;;5.78;2.88;;;;;;;13.47;100.00;100958.09;6338832;22;20026;-57
2021/10/13 06:36:11;;;;;;;12.95;1.77;;;;;;;13.46;100.00;100959.38;6338868;22;20401;-57
2021/10/13 06:39:13;;;;;;;6.40;1.85;;;;;;;13.45;100.00;100966.19;6320048;22;20063;-57
2021/10/13 06:42:16;;;;;;;9.00;3.53;;;;;;;13.43;100.00;100962.31;6339024;22;20077;-57
2021/10/13 06:45:19;;;;;;;14.63;2.45;;;;;;;13.45;100.00;100969.00;6301463;22;20021;-57
2021/10/13 06:48:22;;;;;;;9.63;2.03;;;;;;;13.47;100.00;100971.34;6319359;22;20348;-57
2021/10/13 06:51:25;;;;;;;6.10;1.75;;;;;;;13.47;100.00;100976.94;6338979;22;20026;-57
2021/10/13 06:54:28;;;;;;;5.35;1.15;;;;;;;13.50;100.00;100973.97;6338638;22;20052;-57
2021/10/13 06:57:30;;;;;;;10.50;1.75;;;;;;;13.52;100.00;100979.88;6338524;22;20026;-58
2021/10/13 07:00:33;;;;;;;8.65;1.65;;;;;;;13.62;100.00;100969.47;6338755;22;20026;-57
2021/10/13 07:03:39;;;;;;;8.52;1.83;;;;;;;13.60;100.00;100975.50;6338737;22;20025;-58
2021/10/13 07:06:42;;;;;;;11.00;1.77;;;;;;;13.65;100.00;100983.28;6338500;22;20022;-58
2021/10/13 07:09:45;;;;;;;10.95;2.05;;;;;;;13.67;100.00;100983.59;6338553;22;20107;-58
2021/10/13 07:12:48;;;;;;;8.65;1.77;;;;;;;13.72;100.00;100989.78;6338564;22;20030;-58
2021/10/13 07:15:51;;;;;;;5.13;1.90;;;;;;;13.77;100.00;100983.56;6319550;22;20022;-58
2021/10/13 07:18:53;;;;;;;7.32;1.67;;;;;;;13.87;100.00;100985.88;6338581;22;20036;-57
2021/10/13 07:21:56;;;;;;;14.77;2.72;;;;;;;13.90;100.00;100984.16;6338644;22;20206;-57
2021/10/13 07:25:00;;;;;;;15.40;2.67;;;;;;;13.93;100.00;100988.81;6338714;22;20083;-57
2021/10/13 07:28:03;;;;;;;5.40;1.48;;;;;;;13.98;100.00;100991.75;6338603;22;20076;-57
2021/10/13 07:31:07;;;;;;;5.95;1.45;;;;;;;14.01;100.00;100992.84;6319448;22;20080;-58
2021/10/13 07:34:10;;;;;;;8.80;1.75;;;;;;;14.04;100.00;100989.88;6338518;22;20080;-59
2021/10/13 07:37:13;;;;;;;17.88;1.80;;;;;;;14.05;100.00;100999.84;6338456;22;20018;-59
2021/10/13 07:40:16;;;;;;;2.78;1.45;;;;;;;14.12;100.00;101005.09;6338574;22;20064;-59
2021/10/13 07:43:19;;;;;;;18.23;2.47;;;;;;;14.21;100.00;101004.28;6338528;22;20072;-59
2021/10/13 07:46:24;;;;;;;4.93;1.50;;;;;;;14.20;100.00;101005.53;6337541;22;20072;-59
2021/10/13 07:49:28;;;;;;;4.22;1.95;;;;;;;14.25;100.00;101004.91;6318632;22;20025;-60
2021/10/13 07:52:30;;;;;;;8.90;3.20;;;;;;;14.22;100.00;101000.22;6338126;22;20061;-60
2021/10/13 07:55:33;;;;;;;10.32;3.03;;;;;;;14.27;100.00;101010.81;6338089;22;20025;-59
2021/10/13 07:58:36;;;;;;;6.80;2.25;;;;;;;14.33;100.00;101006.13;6338081;22;20079;-60
2021/10/13 08:01:40;;;;;;;8.85;2.63;;;;;;;14.40;100.00;101006.56;6338070;22;20021;-60
2021/10/13 08:04:42;;;;;;;8.00;1.55;;;;;;;14.51;100.00;101013.69;6338256;22;20136;-60
2021/10/13 08:07:46;;;;;;;6.07;1.50;;;;;;;14.56;100.00;100999.00;6338111;22;20377;-60
2021/10/13 08:10:49;;;;;;;3.47;1.13;;;;;;;14.71;100.00;101003.44;6338629;22;20121;-60
2021/10/13 08:13:52;;;;;;;3.40;0.82;;;;;;;14.81;100.00;100995.75;6338473;22;20278;-60
2021/10/13 08:16:57;;;;;;;5.40;1.23;;;;;;;14.89;100.00;100999.75;6338228;22;20040;-60
2021/10/13 08:20:03;;;;;;;6.70;0.82;;;;;;;15.00;100.00;101006.38;6338278;22;20347;-60
2021/10/13 08:23:06;;;;;;;1.33;0.60;;;;;;;15.08;100.00;101001.97;6338335;22;20041;-60
2021/10/13 08:26:09;;;;;;;2.25;0.35;;;;;;;15.20;100.00;101006.53;6338234;22;20501;-60
2021/10/13 08:29:13;;;;;;;0.73;0.30;;;;;;;15.30;100.00;101003.66;6336189;22;20026;-60
2021/10/13 08:32:16;;;;;;;3.60;0.90;;;;;;;15.38;100.00;101011.22;6336417;22;20025;-61
2021/10/13 08:35:19;;;;;;;0.10;0.10;;;;;;;15.47;100.00;101010.41;6337587;22;20025;-59
2021/10/13 08:38:22;;;;;;;2.15;0.40;;;;;;;15.60;100.00;101005.28;6337575;22;20022;-60
2021/10/13 08:41:24;;;;;;;0.10;0.10;;;;;;;15.67;100.00;101002.09;6337656;22;20025;-60
2021/10/13 08:44:28;;;;;;;0.43;0.10;;;;;;;15.72;100.00;100995.81;6318661;22;20025;-60
2021/10/13 08:47:30;;;;;;;0.32;0.32;;;;;;;15.76;100.00;100997.19;6337880;22;20069;-60
2021/10/13 08:50:36;;;;;;;0.50;0.43;;;;;;;15.87;100.00;101002.97;6318876;22;20068;-60
2021/10/13 08:53:39;;;;;;;1.90;0.35;;;;;;;16.03;100.00;101009.38;6338601;22;20026;-60
2021/10/13 08:56:42;;;;;;;1.85;0.55;;;;;;;16.00;100.00;101005.53;6339611;22;20083;-60
2021/10/13 08:59:48;;;;;;;3.22;0.50;;;;;;;16.14;100.00;101015.97;6339714;22;20349;-60
2021/10/13 09:02:51;;;;;;;1.33;0.28;;;;;;;16.22;100.00;101000.25;6339407;22;20465;-60
2021/10/13 09:05:54;;;;;;;1.80;0.30;;;;;;;16.28;100.00;101009.56;6339199;22;20025;-60
2021/10/13 09:09:00;;;;;;;0.32;0.30;;;;;;;16.37;100.00;101012.25;6339572;22;20052;-60
2021/10/13 09:12:03;;;;;;;0.20;0.20;;;;;;;16.36;100.00;101010.72;6339818;22;20025;-60
2021/10/13 09:15:11;;;;;;;1.55;0.47;;;;;;;16.40;100.00;101008.47;6339633;22;20025;-60
2021/10/13 09:18:14;;;;;;;3.38;1.00;;;;;;;16.43;100.00;101003.91;6339694;22;20021;-60
2021/10/13 09:21:17;;;;;;;1.75;0.38;;;;;;;16.50;100.00;101001.47;6339646;22;20025;-60
2021/10/13 09:24:23;;;;;;;1.20;0.40;;;;;;;16.51;100.00;101005.84;6339591;22;20038;-60
2021/10/13 09:27:31;;;;;;;1.55;0.63;;;;;;;16.50;100.00;101004.28;6339316;22;20030;-59
2021/10/13 09:30:39;;;;;;;0.20;0.10;;;;;;;16.52;100.00;101001.00;6339350;22;20026;-60
2021/10/13 09:34:05;;;;;;;1.27;0.30;;;;;;;16.52;100.00;101001.75;6339344;22;20296;-60
2021/10/13 09:37:08;;;;;;;1.52;0.10;;;;;;;16.52;100.00;100990.50;6339403;22;20017;-60
2021/10/13 09:40:11;;;;;;;1.45;0.10;;;;;;;16.43;100.00;100993.44;6320432;22;20037;-60
2021/10/13 09:43:37;;;;;;;0.85;0.30;;;;;;;16.52;100.00;100990.50;6339553;22;20076;-59
2021/10/13 09:46:40;;;;;;;4.05;0.30;;;;;;;16.61;100.00;100990.41;6339082;22;20025;-59
2021/10/13 09:49:49;;;;;;;0.32;0.10;;;;;;;16.60;100.00;100996.53;6339233;22;20029;-59
2021/10/13 09:52:52;;;;;;;2.90;0.25;;;;;;;16.53;100.00;100996.91;6339516;22;20044;-59
2021/10/13 09:55:55;;;;;;;2.13;0.57;;;;;;;16.60;100.00;100999.34;6339154;22;20384;-59
2021/10/13 09:59:16;;;;;;;2.70;0.63;;;;;;;16.69;100.00;100993.59;6339391;22;20156;-58
2021/10/13 10:02:19;;;;;;;;;;;;;;;16.76;100.00;100998.03;6339819;22;20022;-58
2021/10/13 10:05:30;;;;;;;1.35;0.40;;;;;;;16.83;100.00;100992.75;6339072;22;19912;-61
2021/10/13 10:08:59;;;;;;;1.08;0.45;;;;;;;16.95;100.00;100988.03;6339108;22;20075;-58
2021/10/13 10:12:05;;;;;;;1.00;0.32;;;;;;;17.02;100.00;100987.63;6339142;22;20110;-58
2021/10/13 10:15:11;;;;;;;2.75;0.80;;;;;;;17.00;100.00;100984.53;6338929;22;20057;-58
2021/10/13 10:18:33;;;;;;;3.22;0.85;;;;;;;16.95;100.00;100980.38;6339016;22;20094;-60
2021/10/13 10:21:52;;;;;;;1.15;0.38;;;;;;;16.84;100.00;100983.06;6338920;22;20355;-60
2021/10/13 10:24:56;;;;;;;1.13;0.43;;;;;;;16.74;100.00;100989.31;6339122;22;20026;-60
2021/10/13 10:27:59;;;;;;;0.82;0.45;;;;;;;16.71;100.00;100991.06;6339148;22;20022;-59
2021/10/13 10:31:29;;;;;;;1.50;0.50;;;;;;;16.58;100.00;100988.59;6339144;22;20080;-59
2021/10/13 10:34:32;;;;;;;5.90;0.73;;;;;;;15.99;100.00;101006.75;6338625;22;20021;-59
2021/10/13 10:37:41;;;;;;;3.40;1.02;;;;;;;15.74;100.00;100996.13;6338383;22;20021;-59
2021/10/13 10:40:44;;;;;;;2.85;0.93;;;;;;;15.60;100.00;100997.66;6319166;22;20025;-59
2021/10/13 10:43:47;;;;;;;2.42;0.63;;;;;;;16.00;100.00;101005.53;6338442;22;20029;-59
2021/10/13 10:47:06;;;;;;;2.55;0.93;;;;;;;16.15;100.00;100995.03;6338087;22;20026;-59
2021/10/13 10:50:09;;;;;;;3.83;1.90;;;;;;;16.10;100.00;101009.75;6338310;22;20386;-61
2021/10/13 10:53:31;;;;;;;10.35;1.35;;;;;;;16.11;100.00;101014.13;6338366;22;20090;-61
2021/10/13 10:56:42;;;;;;;2.65;0.63;;;;;;;16.11;100.00;101011.34;6337788;22;20080;-60
2021/10/13 10:59:44;;;;;;;4.35;1.85;;;;;;;16.21;100.00;101014.78;6338096;22;20021;-59
2021/10/13 11:02:48;;;;;;;4.20;1.10;;;;;;;16.29;100.00;100999.06;6338118;22;20026;-60
2021/10/13 11:05:55;;;;;;;1.65;0.75;;;;;;;16.32;100.00;101004.50;6337825;22;20025;-59
2021/10/13 11:09:12;;;;;;;4.05;0.52;;;;;;;16.33;100.00;101005.28;6338136;22;20077;-60
2021/10/13 11:12:15;;;;;;;1.92;0.82;;;;;;;16.32;100.00;101000.91;6338733;22;20083;-60
2021/10/13 11:15:21;;;;;;;1.33;0.45;;;;;;;16.31;100.00;101008.56;6338811;22;20077;-59
2021/10/13 11:18:30;;;;;;;1.30;0.50;;;;;;;16.28;100.00;101008.78;6338359;22;20022;-60
2021/10/13 11:21:33;;;;;;;2.20;0.77;;;;;;;16.13;100.00;100997.56;6338694;22;20068;-59
2021/10/13 11:24:39;;;;;;;3.10;1.35;;;;;;;16.02;100.00;101008.63;6338620;22;20481;-60
2021/10/13 11:27:42;;;;;;;9.38;1.10;;;;;;;15.83;100.00;101012.88;6319103;22;20493;-60
2021/10/13 11:30:48;;;;;;;1.80;0.52;;;;;;;15.75;100.00;101011.69;6338666;22;20031;-60
2021/10/13 11:34:04;;;;;;;4.55;1.70;;;;;;;15.73;100.00;101014.22;6338582;22;20021;-60
2021/10/13 11:37:08;;;;;;;3.58;1.60;;;;;;;15.73;100.00;101008.59;6338727;22;20025;-60
2021/10/13 11:40:16;;;;;;;1.77;1.52;;;;;;;15.78;100.00;101005.13;6338728;22;20387;-60
2021/10/13 11:43:19;;;;;;;6.18;2.58;;;;;;;15.87;100.00;101019.09;6339269;22;20026;-60
2021/10/13 11:46:22;;;;;;;7.70;1.27;;;;;;;16.00;100.00;101025.19;6337985;22;20029;-60
2021/10/13 11:49:25;;;;;;;4.57;1.10;;;;;;;16.06;100.00;101014.81;6338194;22;20038;-60
2021/10/13 11:52:28;;;;;;;2.33;1.15;;;;;;;16.20;100.00;101008.38;6337675;22;20033;-60
2021/10/13 11:55:33;;;;;;;3.45;1.10;;;;;;;16.30;100.00;101006.25;6337819;22;20022;-60
2021/10/13 11:58:37;;;;;;;6.15;1.73;;;;;;;16.42;100.00;101005.94;6337585;22;20071;-59
2021/10/13 12:01:40;;;;;;;1.48;0.65;;;;;;;16.51;100.00;100994.59;6337790;22;20025;-59
2021/10/13 12:04:48;;;;;;;1.33;0.57;;;;;;;16.61;100.00;100992.47;6337620;22;20029;-59
2021/10/13 12:07:51;;;;;;;0.55;0.45;;;;;;;16.70;100.00;100994.38;6337587;22;20022;-59
2021/10/13 12:11:03;;;;;;;1.27;0.47;;;;;;;16.67;100.00;100994.06;6337734;22;20025;-59
2021/10/13 12:14:11;;;;;;;1.77;0.55;;;;;;;16.58;100.00;100994.19;6337743;22;20080;-59
2021/10/13 12:17:32;;;;;;;2.70;0.63;;;;;;;16.45;100.00;100999.34;6337634;22;20021;-57
2021/10/13 12:20:36;;;;;;;0.30;0.30;;;;;;;16.33;100.00;101010.91;6319832;22;20072;-59
2021/10/13 12:23:55;;;;;;;0.60;0.35;;;;;;;16.31;100.00;100997.31;6338093;22;20335;-59
2021/10/13 12:26:58;;;;;;;10.73;0.60;;;;;;;16.34;100.00;100995.59;6338348;22;20022;-59
2021/10/13 12:30:01;;;;;;;1.35;0.30;;;;;;;16.29;100.00;100999.84;6339907;22;20026;-57
2021/10/13 12:33:12;;;;;;;0.43;0.10;;;;;;;16.21;100.00;100998.72;6339889;22;20029;-59
2021/10/13 12:36:19;;;;;;;1.60;0.95;;;;;;;16.17;100.00;101009.38;6339797;22;20064;-59
2021/10/13 12:39:28;;;;;;;0.52;0.32;;;;;;;16.16;100.00;101007.81;6339578;22;20021;-59
2021/10/13 12:42:31;;;;;;;1.40;0.75;;;;;;;16.18;100.00;101004.50;6321606;22;20029;-58
2021/10/13 12:45:35;;;;;;;2.47;0.60;;;;;;;16.06;100.00;101003.56;6320733;22;20021;-58
2021/10/13 12:48:41;;;;;;;0.40;0.32;;;;;;;15.98;100.00;101002.41;6339539;22;20060;-58
2021/10/13 12:51:48;;;;;;;0.95;0.40;;;;;;;15.87;100.00;101002.97;6339769;22;20466;-58
2021/10/13 12:54:55;;;;;;;0.75;0.28;;;;;;;15.88;100.00;100998.16;6339899;22;20519;-58
2021/10/13 12:57:58;;;;;;;0.25;0.22;;;;;;;15.85;100.00;101004.75;6337931;22;20076;-58
2021/10/13 13:01:02;;;;;;;2.33;0.63;;;;;;;15.76;100.00;100997.19;6338798;22;20098;-58
2021/10/13 13:04:05;;;;;;;6.18;1.15;;;;;;;15.74;100.00;100998.94;6339095;22;20064;-58
2021/10/13 13:07:11;;;;;;;13.50;1.83;;;;;;;15.74;100.00;101001.72;6338905;22;20049;-58
2021/10/13 13:10:14;;;;;;;3.55;0.73;;;;;;;15.71;100.00;101003.47;6339009;22;20064;-59
2021/10/13 13:13:17;;;;;;;0.80;0.30;;;;;;;15.73;100.00;101002.97;6339706;22;20071;-58
2021/10/13 13:16:24;;;;;;;3.72;0.70;;;;;;;15.70;100.00;100993.47;6339558;22;20018;-58
2021/10/13 13:19:28;;;;;;;6.70;1.30;;;;;;;15.62;100.00;100995.13;6339450;22;20075;-60
2021/10/13 13:22:31;;;;;;;0.52;0.35;;;;;;;15.87;100.00;100996.59;6320392;22;20457;-59
2021/10/13 13:25:35;;;;;;;1.75;0.63;;;;;;;15.99;100.00;100994.75;6339333;22;20029;-58
2021/10/13 13:28:38;;;;;;;6.95;1.50;;;;;;;16.07;100.00;100993.88;6338924;22;20026;-58
2021/10/13 13:31:41;;;;;;;1.98;0.45;;;;;;;16.11;100.00;100994.47;6339331;22;20076;-59
2021/10/13 13:34:44;;;;;;;0.35;0.35;;;;;;;16.15;100.00;100995.03;6339710;22;20021;-58
2021/10/13 13:37:47;;;;;;;0.30;0.20;;;;;;;16.18;100.00;100994.06;6337479;22;20021;-58
2021/10/13 13:40:51;;;;;;;0.45;0.30;;;;;;;16.21;100.00;100998.72;6337912;22;20072;-59
2021/10/13 13:43:55;;;;;;;1.20;0.45;;;;;;;16.15;100.00;100995.03;6338529;22;20053;-58
2021/10/13 13:46:58;;;;;;;0.50;0.20;;;;;;;16.10;100.00;101001.34;6337473;22;20100;-58
2021/10/13 13:50:02;;;;;;;0.43;0.17;;;;;;;16.10;100.00;101009.75;6339426;22;20052;-58
2021/10/13 13:53:05;;;;;;;1.73;0.25;;;;;;;16.03;100.00;101006.56;6338019;22;20095;-59
2021/10/13 13:56:08;;;;;;;2.45;0.55;;;;;;;15.90;100.00;101004.06;6339226;22;20068;-58
2021/10/13 13:59:12;;;;;;;1.52;0.57;;;;;;;15.78;100.00;101000.28;6339604;22;20021;-58
2021/10/13 14:02:16;;;;;;;6.13;0.43;;;;;;;15.84;100.00;100992.72;6339520;22;20069;-58
2021/10/13 14:05:19;;;;;;;0.55;0.22;;;;;;;15.92;100.00;100993.09;6339132;22;20037;-58
2021/10/13 14:08:22;;;;;;;1.23;0.20;;;;;;;16.01;100.00;100995.81;6339064;22;20036;-57
2021/10/13 14:11:24;;;;;;;2.15;0.60;;;;;;;15.99;100.00;100987.09;6339184;22;20462;-58
2021/10/13 14:14:27;;;;;;;0.45;0.15;;;;;;;16.03;100.00;100993.28;6339102;22;20030;-58